Winterton, United Kingdom
Current Conditions -  °F | °C
As of 7:20 PM on Friday 21 Nov 2014 (Local Time) from EGNJ Reporting Station
Moderate Rain Moderate Rain  
Wind Chill: 43°   Ceiling: Unl
Heat Index: 48°   Visibility: 4mi
Dew Point: 46°   Wind: 12mph
Humidity: 93%   Direction: 120°ESE
Pressure: 29.97"   Gusts: NA
Location:  53.65°N, 0.6°W
Report Text: EGNJ 211920Z 12010KT 7000 RA SCT040 09/08 Q1015
Loading
Personal Weather Stations






























Interactive Weather Map New forecast layout! Learn more

10-Day Weather Forecast

Advertisements
Track Severe Weather on mobile